Bhop Stats - Record Database
Name SteamID Rank Points Last Seen (DD-MM-YYYY)
impale STEAM_1:0:155943526 52 5275.3 26-01-2021 23:49:51
Run ID SteamID Name Map Style Track Time Jumps Strafes Sync Points Date (DD-MM-YYYY)
88245 311887052 impale bhop_pyle Normal Main 02:32.180m 172 236 95.01% 149.94 12-05-2020 05:54:19
88344 311887052 impale bhop_shampoo Normal Main 18.492s 25 53 96.43% 74.89 12-05-2020 09:40:48
88422 311887052 impale bhop_cobblestones Normal Bonus 1 4.039s 5 9 88.11% 16.88 12-05-2020 11:39:27
88438 311887052 impale bhop_mixtape_csgo Normal Main 17.180s 22 65 94.57% 73.86 12-05-2020 12:09:55
88465 311887052 impale bhop_mixtape_csgo TAS Bonus 1 7.234s 10 0 47.05% 9.39 12-05-2020 12:11:29
88469 311887052 impale bhop_mixtape_csgo Half-Sideways Bonus 1 9.414s 13 25 99.08% 9.13 12-05-2020 12:13:02
88462 311887052 impale bhop_mixtape_csgo Normal Bonus 1 7.883s 11 31 92.48% 18.28 12-05-2020 12:13:13
88479 311887052 impale bhop_mixtape_csgo W-Only Bonus 1 10.273s 14 0 94.78% 9.25 12-05-2020 12:14:21
88493 311887052 impale bhop_dumbshit Normal Main 29.719s 40 73 96.71% 67.13 12-05-2020 12:32:36
88643 311887052 impale bhop_cyon Normal Main 51.086s 63 83 97.23% 153.41 13-05-2020 00:40:57
88668 311887052 impale bhop_witchsprings Normal Main 16.930s 22 55 94.55% 75.31 13-05-2020 02:13:42
88693 311887052 impale bhop_akuaku_v1 Normal Main 15.781s 22 45 94.59% 71.82 13-05-2020 03:09:34
88832 311887052 impale bhop_nuclear_rg1 Normal Main 19.195s 26 40 95.31% 74.48 13-05-2020 12:16:02
88842 311887052 impale bhop_ripchy Normal Main 29.641s 35 79 95.37% 72.36 13-05-2020 12:47:32
88862 311887052 impale bhop_losthasdepression Normal Main 18.242s 27 51 94.82% 76.22 13-05-2020 13:38:38
88870 311887052 impale bhop_eazy_4xl_csgo Normal Main 01:08.828m 92 114 96.27% 154.59 13-05-2020 13:53:37
88881 311887052 impale bhop_kukliii_e_rock_csgo Normal Main 19.055s 22 51 95.20% 74.62 13-05-2020 14:10:59
88886 311887052 impale bhop_primal Normal Main 30.773s 37 65 95.25% 146.30 13-05-2020 14:33:27
88888 311887052 impale bhop_enter_the_colosseum Normal Main 17.453s 26 45 94.70% 76.16 13-05-2020 15:00:53
88890 311887052 impale bhop_enter_the_colosseum Scroll Main 23.953s 33 58 91.20% 37.10 13-05-2020 15:05:32
88936 311887052 impale bhop_project_easy Normal Main 41.852s 57 98 94.47% 75.18 13-05-2020 23:53:37
88938 311887052 impale bhop_twisty Normal Main 25.914s 38 67 96.16% 54.49 13-05-2020 23:58:58
89183 311887052 impale bhop_grigio Normal Main 32.273s 41 63 95.77% 141.26 14-05-2020 14:00:59
89190 311887052 impale bhop_greenhouse Normal Bonus 1 6.086s 9 20 94.07% 18.29 14-05-2020 14:14:04
89215 311887052 impale bhop_atom Normal Main 21.094s 29 72 94.59% 71.68 14-05-2020 15:16:47
88496 311887052 impale bhop_ambience Normal Main 18.547s 25 63 96.30% 74.51 14-05-2020 15:35:39
89305 311887052 impale bhop_1n5an3 Normal Main 13.234s 18 36 95.79% 75.02 15-05-2020 04:37:16
89336 311887052 impale bhop_anotherboostermap Normal Main 11.344s 9 17 97.59% 58.25 15-05-2020 07:49:59
89380 311887052 impale bhop_nullified Normal Main 9.625s 10 31 91.38% 73.66 15-05-2020 10:30:40
89385 311887052 impale bhop_iconic Normal Bonus 1 11.742s 16 46 93.98% 18.72 15-05-2020 11:21:34
89393 311887052 impale bhop_iconic Segmented Bonus 1 11.969s 16 39 95.40% 4.74 15-05-2020 11:54:37
89399 311887052 impale bhop_kirous Normal Bonus 1 26.305s 36 67 94.87% 18.51 15-05-2020 12:36:21
89418 311887052 impale bhop_synthetic Normal Bonus 1 3.211s 7 7 97.19% 17.75 15-05-2020 13:30:38
89453 311887052 impale bhop_agu_final Normal Main 03:58.250m 292 475 94.30% 145.75 15-05-2020 15:53:12
89460 311887052 impale bhop_speedrun_fluid Normal Main 24.922s 31 63 94.08% 74.16 15-05-2020 16:24:27
89464 311887052 impale bhop_blossom2 Normal Bonus 1 8.805s 12 18 97.39% 16.55 15-05-2020 16:36:57
89468 311887052 impale bhop_hahalol Normal Main 16.766s 21 44 96.88% 75.92 15-05-2020 17:08:30
89480 311887052 impale bhop_grassyass W-Only Main 19.352s 27 0 92.22% 37.85 15-05-2020 17:30:53
89483 311887052 impale bhop_grassyass Sideways Main 17.227s 24 48 99.34% 37.66 15-05-2020 17:35:28
89493 311887052 impale bhop_406 Normal Main 13.164s 16 48 94.84% 75.19 15-05-2020 18:06:55
89601 311887052 impale bhop_zyper Slow Motion Bonus 1 1.344s 2 9 92.03% 0.00 16-05-2020 06:57:21
89605 311887052 impale bhop_zyper Half-Sideways Bonus 1 1.695s 3 6 97.42% 9.39 16-05-2020 06:59:33
89607 311887052 impale bhop_zyper Scroll Bonus 1 1.633s 3 6 88.42% 9.39 16-05-2020 06:59:55
89610 311887052 impale bhop_zyper TAS Bonus 1 1.367s 2 0 10.63% 9.12 16-05-2020 07:01:05
89615 311887052 impale bhop_zyper Low Gravity Bonus 1 1.523s 1 6 89.38% 0.00 16-05-2020 07:02:55
89591 311887052 impale bhop_zyper Normal Bonus 1 1.500s 2 7 83.69% 18.23 16-05-2020 07:04:04
89623 311887052 impale bhop_1n5an3 Half-Sideways Main 16.164s 22 19 98.30% 34.85 16-05-2020 07:20:13
89625 311887052 impale bhop_1n5an3 Segmented Main 14.063s 19 31 96.92% 17.78 16-05-2020 07:24:14
89632 311887052 impale bhop_egyptian_pickle Normal Main 28.055s 33 59 95.50% 151.87 16-05-2020 07:32:48
89741 311887052 impale bhop_shitmap_csgo Normal Bonus 1 2.719s 4 10 94.64% 17.82 16-05-2020 15:30:21
89746 311887052 impale bhop_legomyego_csgo Normal Main 14.148s 22 33 96.23% 75.94 16-05-2020 17:52:32
89852 311887052 impale bhop_jump_academy_csgo Normal Main 15.672s 16 40 95.87% 75.74 17-05-2020 05:00:44
90661 311887052 impale bhop_synthetic Normal Main 1:0:28.980h 4041 6348 92.11% 83.33 19-05-2020 13:36:17
91211 311887052 impale bhop_orca_beta1_lr1 Normal Main 12.555s 15 36 92.96% 68.83 22-05-2020 06:28:29
91755 311887052 impale bhop_furax Normal Main 8.258s 11 28 93.03% 70.94 24-05-2020 02:13:24
91758 311887052 impale bhop_strafe_eiffel Normal Main 12.031s 15 42 92.06% 74.06 24-05-2020 02:31:07
92241 311887052 impale bhop_advi_wood_rg1 Normal Bonus 1 12.047s 16 34 93.79% 17.25 26-05-2020 07:42:19
92267 311887052 impale bhop_kerpele Normal Main 35.859s 48 75 95.24% 140.03 26-05-2020 08:49:53
92276 311887052 impale bhop_redshit Normal Main 17.211s 22 51 95.03% 73.48 26-05-2020 09:12:27
92279 311887052 impale bhop_speedrun_valley_csgo_b2 Normal Bonus 1 8.656s 12 29 94.04% 17.37 26-05-2020 09:25:49
93738 311887052 impale bhop_dim Normal Bonus 1 17.992s 20 45 94.11% 19.05 01-06-2020 03:41:09
97115 311887052 impale bhop_p04_go Normal Main 15.578s 20 51 92.78% 70.12 20-06-2020 04:15:04
97701 311887052 impale bhop_hangtime2_fix Normal Bonus 1 7.195s 9 19 93.34% 17.16 23-06-2020 07:03:12
102661 311887052 impale bhop_redmin Normal Main 26.953s 31 52 95.53% 131.13 17-07-2020 02:25:12
110827 311887052 impale bhop_dokxert_one Normal Main 35.693s 48 60 96.15% 124.79 29-08-2020 03:05:54
111065 311887052 impale bhop_cks_stref Normal Main 18.820s 25 58 94.00% 72.56 29-08-2020 22:34:58
112399 311887052 impale bhop_aux_a9_csgo Normal Bonus 1 23.013s 26 48 91.57% 17.61 03-09-2020 07:43:09
112404 311887052 impale bhop_legomyego_csgo Low Gravity Main 10.060s 8 30 91.53% 0.00 03-09-2020 08:29:48
112929 311887052 impale bhop_auto_omega Normal Main 21.353s 33 37 96.12% 150.85 05-09-2020 04:57:19
114734 311887052 impale bhop_failed Normal Main 30.103s 40 52 95.33% 138.16 12-09-2020 08:44:45
112933 311887052 impale bhop_template Normal Main 11.112s 14 31 92.84% 73.73 04-12-2020 05:00:21
119858 311887052 impale bhop_esip Normal Main 01:03.551m 67 111 95.12% 134.52 11-12-2020 07:38:34
119860 311887052 impale bhop_alice Normal Main 28.404s 32 77 93.02% 70.54 11-12-2020 07:50:34
120140 311887052 impale bhop_dreamynight_fix Normal Bonus 1 6.826s 9 19 88.56% 17.74 12-12-2020 10:01:22
120280 311887052 impale bhop_mirrorsedge_csgo Normal Main 51.548s 65 88 93.64% 152.56 13-12-2020 03:53:35
120350 311887052 impale bhop_ocean Normal Bonus 1 13.657s 14 15 91.54% 18.98 13-12-2020 07:31:01
120361 311887052 impale bhop_eblanki Normal Bonus 1 1.701s 0 0 0.00% 17.44 13-12-2020 07:39:32
120370 311887052 impale bhop_eblanki Normal Main 13.436s 18 34 91.39% 69.17 13-12-2020 07:44:35
120693 311887052 impale bhop_pj_beta1_csgo_b2 Normal Bonus 1 11.324s 9 25 89.85% 18.94 14-12-2020 06:30:37
120696 311887052 impale bhop_pj_beta1_csgo_b2 Low Gravity Bonus 1 10.634s 4 22 85.28% 0.00 14-12-2020 06:35:57
121823 311887052 impale bhop_cks_maze Normal Main 01:19.740m 108 110 96.29% 67.44 19-12-2020 06:15:24
121833 311887052 impale bhop_coast Normal Bonus 1 7.141s 8 22 91.57% 18.87 19-12-2020 06:39:48
121827 311887052 impale bhop_cks_maze Normal Bonus 1 8.041s 11 21 93.61% 18.36 19-12-2020 07:52:34
121898 311887052 impale bhop_stref_siberia Normal Bonus 1 2.588s 4 9 89.90% 17.03 19-12-2020 08:45:46
121917 311887052 impale bhop_stref_siberia Half-Sideways Bonus 1 2.836s 4 9 97.47% 9.03 19-12-2020 08:57:55
121918 311887052 impale bhop_stref_siberia Low Gravity Bonus 1 2.651s 2 10 90.12% 0.00 19-12-2020 09:00:18
121921 311887052 impale bhop_stref_siberia D-Only Bonus 1 2.977s 4 0 73.84% 9.24 19-12-2020 09:01:29
121925 311887052 impale bhop_pyramid_fix Normal Main 23.389s 27 44 95.17% 151.56 19-12-2020 09:23:25
121931 311887052 impale bhop_sandtrap Normal Main 40.463s 20 29 97.33% 141.15 19-12-2020 09:39:58
121940 311887052 impale bhop_bubblegum Normal Bonus 1 8.203s 12 20 91.48% 16.29 19-12-2020 10:19:44
122319 311887052 impale bhop_fuji Slow Motion Bonus 1 5.284s 8 22 94.88% 0.00 21-12-2020 08:08:00
122331 311887052 impale bhop_mukiology Normal Bonus 1 4.030s 6 14 88.29% 16.79 21-12-2020 08:18:33
122478 311887052 impale bhop_trezza Normal Main 14.665s 18 35 93.86% 146.80 22-12-2020 05:53:04
122486 311887052 impale bhop_trezza TAS Bonus 1 4.846s 7 0 3.98% 9.31 22-12-2020 05:55:05
122474 311887052 impale bhop_trezza Normal Bonus 1 5.085s 7 18 88.97% 17.93 22-12-2020 05:56:16
122493 311887052 impale bhop_very_long_fur_bonus_bruh Normal Main 28.995s 39 81 91.18% 71.94 22-12-2020 06:04:31
122494 311887052 impale bhop_very_long_fur_bonus_bruh Normal Bonus 1 5.686s 8 20 92.73% 18.02 22-12-2020 06:04:51
122910 311887052 impale bhop_aztec_csgo Half-Sideways Main 11.633s 15 16 98.66% 36.32 24-12-2020 05:58:59
122913 311887052 impale bhop_aztec_csgo Normal Main 10.181s 14 29 93.29% 71.01 24-12-2020 06:03:46
88340 311887052 impale bhop_cherryblossom Normal Main 12.432s 17 42 92.29% 71.24 24-12-2020 06:17:21